createdAt,value
2023-05-19T00:00:25.657Z,10.02
2023-05-19T00:02:56.415Z,9.98
2023-05-19T00:05:24.917Z,9.94
2023-05-19T00:07:53.394Z,9.93
2023-05-19T00:10:21.870Z,9.89
2023-05-19T00:12:52.392Z,9.80
2023-05-19T00:15:21.971Z,9.75
2023-05-19T00:17:49.627Z,9.67
2023-05-19T00:20:18.952Z,9.69
2023-05-19T00:22:47.267Z,9.66
2023-05-19T00:25:15.074Z,9.58
2023-05-19T00:27:43.199Z,9.58
2023-05-19T00:30:11.539Z,9.53
2023-05-19T00:32:39.867Z,9.54
2023-05-19T00:35:08.215Z,9.52
2023-05-19T00:37:37.191Z,9.50
2023-05-19T00:40:06.660Z,9.44
2023-05-19T00:42:34.739Z,9.42
2023-05-19T00:45:02.516Z,9.36
2023-05-19T00:47:30.476Z,9.27
2023-05-19T00:49:58.439Z,9.26
2023-05-19T00:52:26.518Z,9.25
2023-05-19T00:54:56.793Z,9.28
2023-05-19T00:57:26.276Z,9.36
2023-05-19T00:59:54.161Z,9.35
2023-05-19T01:02:22.498Z,9.31
2023-05-19T01:04:52.067Z,9.31
2023-05-19T01:07:21.307Z,9.24
2023-05-19T01:09:49.734Z,9.20
2023-05-19T01:12:19.119Z,9.27
2023-05-19T01:14:46.896Z,9.22
2023-05-19T01:17:17.926Z,9.23
2023-05-19T01:19:54.162Z,9.24
2023-05-19T01:22:33.428Z,9.21
2023-05-19T01:25:19.990Z,9.18
2023-05-19T01:28:09.048Z,9.23
2023-05-19T01:30:40.945Z,9.16
2023-05-19T01:33:11.164Z,9.21
2023-05-19T01:35:41.108Z,9.15
2023-05-19T01:38:10.074Z,9.20
2023-05-19T01:40:38.735Z,9.21
2023-05-19T01:43:07.559Z,9.21
2023-05-19T01:45:35.527Z,9.19
2023-05-19T01:48:10.002Z,9.15
2023-05-19T01:50:40.755Z,9.14
2023-05-19T01:53:08.833Z,9.16
2023-05-19T01:55:37.117Z,9.11
2023-05-19T01:58:10.802Z,9.10
2023-05-19T02:00:46.858Z,9.04
2023-05-19T02:03:31.628Z,9.06
2023-05-19T02:06:04.393Z,8.99
2023-05-19T02:08:40.529Z,9.02
2023-05-19T02:11:14.156Z,8.94
2023-05-19T02:13:45.026Z,8.90
2023-05-19T02:16:14.835Z,8.88
2023-05-19T02:18:46.218Z,8.77
2023-05-19T02:21:14.164Z,8.80
2023-05-19T02:23:42.165Z,8.80
2023-05-19T02:26:10.082Z,8.83
2023-05-19T02:28:37.829Z,8.76
2023-05-19T02:31:08.861Z,8.73
2023-05-19T02:33:37.499Z,8.72
2023-05-19T02:36:07.444Z,8.63
2023-05-19T02:38:36.426Z,8.62
2023-05-19T02:41:04.571Z,8.58
2023-05-19T02:43:32.650Z,8.56
2023-05-19T02:46:01.060Z,8.66
2023-05-19T02:48:28.921Z,8.60
2023-05-19T02:50:56.943Z,8.60
2023-05-19T02:53:27.041Z,8.53
2023-05-19T02:55:55.150Z,8.56
2023-05-19T02:58:23.223Z,8.59
2023-05-19T03:00:51.776Z,8.53
2023-05-19T03:03:20.232Z,8.53
2023-05-19T03:05:48.623Z,8.59
2023-05-19T03:08:16.725Z,8.58
2023-05-19T03:10:46.777Z,8.59
2023-05-19T03:13:14.872Z,8.58
2023-05-19T03:15:42.917Z,8.57
2023-05-19T03:18:12.053Z,8.57
2023-05-19T03:20:42.579Z,8.60
2023-05-19T03:23:10.602Z,8.59
2023-05-19T03:25:38.822Z,8.59
2023-05-19T03:28:08.423Z,8.53
2023-05-19T03:30:36.497Z,8.45
2023-05-19T03:33:15.390Z,8.35
2023-05-19T03:35:44.402Z,8.37
2023-05-19T03:38:12.507Z,8.39
2023-05-19T03:40:44.234Z,8.35
2023-05-19T03:43:16.398Z,8.31
2023-05-19T03:45:50.228Z,8.26
2023-05-19T03:48:36.790Z,8.21
2023-05-19T03:51:35.050Z,8.25
2023-05-19T03:54:19.937Z,8.22
2023-05-19T03:56:48.164Z,8.30
2023-05-19T03:59:17.686Z,8.33
2023-05-19T04:01:46.516Z,8.39
2023-05-19T04:04:15.019Z,8.36
2023-05-19T04:06:43.350Z,8.34
2023-05-19T04:09:14.056Z,8.39
2023-05-19T04:11:42.154Z,8.42
2023-05-19T04:14:10.420Z,8.53
2023-05-19T04:16:39.904Z,8.73
2023-05-19T04:19:08.696Z,8.80
2023-05-19T04:21:37.183Z,8.97
2023-05-19T04:24:06.725Z,8.89
2023-05-19T04:26:36.258Z,8.99
2023-05-19T04:29:05.122Z,9.03
2023-05-19T04:31:34.576Z,8.86
2023-05-19T04:34:05.935Z,8.84
2023-05-19T04:36:34.135Z,8.84
2023-05-19T04:39:08.246Z,8.81
2023-05-19T04:41:40.616Z,8.99
2023-05-19T04:44:10.281Z,9.04
2023-05-19T04:46:39.155Z,9.13
2023-05-19T04:49:09.032Z,9.11
2023-05-19T04:51:37.108Z,9.05
2023-05-19T04:54:05.405Z,8.94
2023-05-19T04:56:34.534Z,9.08
2023-05-19T04:59:02.932Z,9.10
2023-05-19T05:01:33.175Z,9.14
2023-05-19T05:04:03.399Z,9.16
2023-05-19T05:06:33.621Z,9.37
2023-05-19T05:09:03.784Z,9.36
2023-05-19T05:11:35.195Z,9.48
2023-05-19T05:14:04.139Z,9.39
2023-05-19T05:16:33.333Z,9.53
2023-05-19T05:19:02.586Z,9.49
2023-05-19T05:21:31.868Z,9.77
2023-05-19T05:24:02.498Z,9.74
2023-05-19T05:26:34.647Z,9.89
2023-05-19T05:29:02.502Z,10.08
2023-05-19T05:31:31.576Z,10.01
2023-05-19T05:34:00.229Z,10.06
2023-05-19T05:36:32.294Z,10.57
2023-05-19T05:39:04.117Z,10.58
2023-05-19T05:41:35.627Z,10.89
2023-05-19T05:44:10.007Z,11.21
2023-05-19T05:46:40.691Z,11.08
2023-05-19T05:49:08.886Z,10.81
2023-05-19T05:51:37.325Z,11.18
2023-05-19T05:54:07.795Z,11.05
2023-05-19T05:56:39.467Z,11.37
2023-05-19T05:59:11.996Z,11.27
2023-05-19T06:01:40.826Z,11.51
2023-05-19T06:04:10.397Z,11.75
2023-05-19T06:06:39.189Z,11.85
2023-05-19T06:09:08.844Z,11.85
2023-05-19T06:11:37.461Z,12.34
2023-05-19T06:14:06.033Z,12.29
2023-05-19T06:16:49.283Z,12.14
2023-05-19T06:19:20.289Z,12.24
2023-05-19T06:21:49.108Z,12.58
2023-05-19T06:24:18.479Z,12.72
2023-05-19T06:26:46.757Z,12.95
2023-05-19T06:29:16.439Z,12.87
2023-05-19T06:31:44.565Z,13.40
2023-05-19T06:34:17.888Z,13.75
2023-05-19T06:36:47.961Z,13.99
2023-05-19T06:39:18.001Z,14.14
2023-05-19T06:41:46.828Z,13.72
2023-05-19T06:44:28.050Z,14.03
2023-05-19T06:46:55.919Z,13.93
2023-05-19T06:49:24.662Z,14.33
2023-05-19T06:51:52.890Z,14.13
2023-05-19T06:54:23.326Z,14.47
2023-05-19T06:56:51.149Z,14.86
2023-05-19T06:59:21.946Z,14.17
2023-05-19T07:01:50.738Z,14.65
2023-05-19T07:04:18.841Z,15.46
2023-05-19T07:06:46.904Z,15.72
2023-05-19T07:09:14.821Z,15.30
2023-05-19T07:11:47.125Z,15.22
2023-05-19T07:14:15.297Z,16.14
2023-05-19T07:16:43.595Z,16.70
2023-05-19T07:19:11.900Z,16.86
2023-05-19T07:21:39.702Z,16.97
2023-05-19T07:24:07.687Z,17.10
2023-05-19T07:26:35.762Z,16.81
2023-05-19T07:29:04.968Z,16.55
2023-05-19T07:31:32.745Z,16.27
2023-05-19T07:34:00.750Z,16.61
2023-05-19T07:36:28.681Z,16.85
2023-05-19T07:38:56.478Z,17.17
2023-05-19T07:41:24.530Z,17.90
2023-05-19T07:43:52.516Z,18.51
2023-05-19T07:46:22.309Z,19.04
2023-05-19T07:48:50.489Z,18.80
2023-05-19T07:51:19.377Z,18.48
2023-05-19T07:53:48.526Z,18.54
2023-05-19T07:56:17.047Z,18.33
2023-05-19T07:58:44.960Z,18.84
2023-05-19T08:01:12.869Z,19.76
2023-05-19T08:03:42.218Z,20.49
2023-05-19T08:06:10.028Z,19.29
2023-05-19T08:08:37.825Z,19.36
2023-05-19T08:11:06.592Z,19.67
2023-05-19T08:13:34.785Z,20.39
2023-05-19T08:16:03.009Z,20.49
2023-05-19T08:18:31.767Z,19.73
2023-05-19T08:21:01.420Z,18.05
2023-05-19T08:23:29.800Z,20.20
2023-05-19T08:25:57.773Z,21.32
2023-05-19T08:28:26.409Z,21.75
2023-05-19T08:30:54.562Z,22.06
2023-05-19T08:33:22.933Z,21.21
2023-05-19T08:35:51.235Z,22.33
2023-05-19T08:38:20.936Z,22.06
2023-05-19T08:40:49.226Z,21.16
2023-05-19T08:43:17.269Z,22.45
2023-05-19T08:45:46.583Z,22.50
2023-05-19T08:48:15.439Z,22.36
2023-05-19T08:50:49.199Z,21.55
2023-05-19T08:53:33.267Z,21.04
2023-05-19T08:56:11.032Z,20.03
2023-05-19T08:58:40.328Z,19.42
2023-05-19T09:01:08.873Z,19.46
2023-05-19T09:03:38.536Z,19.85
2023-05-19T09:06:10.809Z,19.90
2023-05-19T09:08:39.072Z,20.08
2023-05-19T09:11:09.336Z,20.53
2023-05-19T09:13:39.392Z,19.50
2023-05-19T09:16:08.581Z,20.10
2023-05-19T09:18:40.090Z,21.79
2023-05-19T09:21:10.316Z,22.88
2023-05-19T09:23:38.428Z,22.37
2023-05-19T09:26:08.015Z,22.00
2023-05-19T09:28:38.393Z,21.53
2023-05-19T09:31:07.016Z,21.26
2023-05-19T09:33:36.205Z,21.51
2023-05-19T09:36:06.234Z,21.08
2023-05-19T09:38:34.309Z,20.80
2023-05-19T09:41:02.920Z,20.91
2023-05-19T09:43:31.829Z,21.14
2023-05-19T09:46:07.512Z,20.69
2023-05-19T09:48:36.835Z,20.46
2023-05-19T09:51:06.613Z,20.30
2023-05-19T09:53:35.785Z,20.65
2023-05-19T09:56:04.700Z,20.30
2023-05-19T09:58:34.833Z,20.41
2023-05-19T10:01:02.905Z,21.07
2023-05-19T10:03:33.219Z,21.21
2023-05-19T10:06:02.405Z,22.49
2023-05-19T10:08:32.036Z,22.64
2023-05-19T10:11:00.373Z,22.02
2023-05-19T10:13:30.685Z,22.95
2023-05-19T10:16:00.410Z,24.10
2023-05-19T10:18:29.439Z,23.76
2023-05-19T10:21:00.007Z,22.96
2023-05-19T10:23:27.870Z,23.02
2023-05-19T10:25:57.186Z,23.28
2023-05-19T10:28:28.047Z,22.85
2023-05-19T10:30:57.631Z,22.65
2023-05-19T10:33:33.352Z,22.20
2023-05-19T10:36:11.920Z,21.87
2023-05-19T10:38:43.727Z,21.29
2023-05-19T10:41:14.222Z,21.54
2023-05-19T10:43:50.407Z,21.53
2023-05-19T10:46:18.470Z,21.60
2023-05-19T10:48:47.280Z,20.77
2023-05-19T10:51:17.342Z,20.86
2023-05-19T10:53:47.121Z,21.41
2023-05-19T10:56:30.428Z,21.75
2023-05-19T10:58:58.524Z,21.77
2023-05-19T11:01:31.453Z,22.36
2023-05-19T11:04:05.830Z,22.79
2023-05-19T11:06:37.736Z,22.18
2023-05-19T11:09:12.799Z,22.53
2023-05-19T11:11:47.865Z,22.40
2023-05-19T11:14:16.630Z,22.43
2023-05-19T11:16:47.792Z,21.96
2023-05-19T11:19:20.231Z,22.82
2023-05-19T11:21:50.489Z,23.94
2023-05-19T11:24:37.563Z,25.45
2023-05-19T11:27:20.576Z,26.86
2023-05-19T11:29:49.203Z,30.51
2023-05-19T11:32:17.247Z,26.44
2023-05-19T11:34:45.795Z,23.61
2023-05-19T11:37:15.162Z,26.93
2023-05-19T11:39:43.959Z,29.85
2023-05-19T11:42:12.039Z,32.03
2023-05-19T11:44:41.319Z,29.88
2023-05-19T11:47:09.043Z,26.18
2023-05-19T11:49:36.900Z,26.22
2023-05-19T11:52:05.953Z,25.57
2023-05-19T11:54:36.655Z,27.07
2023-05-19T11:57:05.236Z,28.90
2023-05-19T11:59:35.590Z,29.79
2023-05-19T12:02:04.901Z,27.86
2023-05-19T12:04:32.753Z,25.31
2023-05-19T12:07:03.815Z,24.65
2023-05-19T12:09:31.720Z,28.75
2023-05-19T12:12:01.895Z,28.32
2023-05-19T12:14:31.354Z,25.87
2023-05-19T12:16:59.434Z,25.05
2023-05-19T12:19:27.922Z,25.29
2023-05-19T12:21:55.993Z,25.36
2023-05-19T12:24:23.884Z,26.12
2023-05-19T12:26:51.929Z,25.43
2023-05-19T12:29:20.933Z,25.80
2023-05-19T12:31:49.541Z,27.80
2023-05-19T12:34:17.218Z,25.66
2023-05-19T12:36:44.993Z,26.85
2023-05-19T12:39:13.959Z,23.99
2023-05-19T12:41:41.833Z,22.62
2023-05-19T12:44:15.638Z,23.00
2023-05-19T12:46:44.681Z,23.85
2023-05-19T12:49:12.594Z,25.12
2023-05-19T12:51:40.604Z,23.85
2023-05-19T12:54:09.063Z,23.48
2023-05-19T12:56:36.707Z,23.65
2023-05-19T12:59:04.496Z,23.55
2023-05-19T13:01:32.437Z,22.99
2023-05-19T13:04:03.355Z,23.74
2023-05-19T13:06:33.649Z,24.44
2023-05-19T13:09:01.441Z,25.48
2023-05-19T13:11:30.230Z,27.75
2023-05-19T13:13:58.712Z,28.04
2023-05-19T13:16:26.653Z,27.74
2023-05-19T13:18:54.962Z,28.09
2023-05-19T13:21:24.915Z,28.68
2023-05-19T13:23:53.414Z,27.63
2023-05-19T13:26:21.349Z,26.58
2023-05-19T13:28:49.227Z,25.32
2023-05-19T13:31:16.834Z,24.85
2023-05-19T13:33:44.758Z,24.61
2023-05-19T13:36:12.679Z,25.61
2023-05-19T13:38:42.072Z,26.55
2023-05-19T13:41:10.870Z,26.81
2023-05-19T13:43:38.941Z,25.31
2023-05-19T13:46:06.879Z,24.43
2023-05-19T13:48:34.603Z,23.99
2023-05-19T13:51:02.441Z,23.28
2023-05-19T13:53:32.738Z,23.19
2023-05-19T13:56:02.308Z,23.66
2023-05-19T13:58:30.457Z,24.17
2023-05-19T14:00:59.993Z,24.00
2023-05-19T14:03:28.133Z,23.80
2023-05-19T14:05:56.044Z,24.00
2023-05-19T14:08:23.926Z,23.65
2023-05-19T14:10:52.196Z,24.33
2023-05-19T14:13:32.313Z,27.60
2023-05-19T14:16:00.943Z,28.30
2023-05-19T14:18:28.649Z,28.34
2023-05-19T14:20:56.500Z,30.31
2023-05-19T14:23:24.212Z,31.78
2023-05-19T14:25:51.844Z,32.05
2023-05-19T14:28:20.942Z,35.42
2023-05-19T14:30:49.648Z,34.93
2023-05-19T14:33:17.577Z,35.54
2023-05-19T14:35:45.378Z,34.65
2023-05-19T14:38:13.775Z,34.03
2023-05-19T14:40:42.286Z,34.27
2023-05-19T14:43:09.991Z,31.33
2023-05-19T14:45:39.672Z,28.20
2023-05-19T14:48:07.328Z,27.47
2023-05-19T14:50:35.233Z,27.85
2023-05-19T14:53:02.870Z,27.33
2023-05-19T14:55:30.688Z,27.18
2023-05-19T14:57:58.145Z,26.51
2023-05-19T15:00:26.196Z,26.34
2023-05-19T15:02:56.352Z,26.53
2023-05-19T15:05:24.559Z,26.28
2023-05-19T15:07:52.312Z,25.55
2023-05-19T15:10:20.862Z,25.05
2023-05-19T15:12:48.704Z,25.13
2023-05-19T15:15:17.228Z,25.50
2023-05-19T15:17:45.948Z,26.02
2023-05-19T15:20:15.165Z,26.68
2023-05-19T15:22:42.905Z,26.86
2023-05-19T15:25:11.133Z,25.83
2023-05-19T15:27:39.115Z,24.49
2023-05-19T15:30:07.222Z,24.31
2023-05-19T15:32:35.079Z,24.07
2023-05-19T15:35:02.898Z,23.30
2023-05-19T15:37:33.608Z,22.61
2023-05-19T15:40:01.466Z,22.30
2023-05-19T15:42:29.904Z,22.29
2023-05-19T15:44:57.845Z,22.33
2023-05-19T15:47:26.056Z,22.02
2023-05-19T15:49:53.791Z,21.99
2023-05-19T15:52:22.294Z,22.31
2023-05-19T15:54:51.479Z,22.30
2023-05-19T15:57:19.110Z,22.58
2023-05-19T15:59:46.751Z,22.75
2023-05-19T16:02:15.635Z,23.26
2023-05-19T16:04:43.659Z,23.24
2023-05-19T16:07:11.489Z,22.87
2023-05-19T16:09:39.045Z,22.70
2023-05-19T16:12:08.815Z,22.82
2023-05-19T16:14:37.918Z,22.79
2023-05-19T16:17:11.363Z,21.92
2023-05-19T16:19:39.108Z,21.72
2023-05-19T16:22:06.886Z,21.40
2023-05-19T16:24:34.735Z,21.22
2023-05-19T16:27:02.473Z,21.18
2023-05-19T16:29:31.547Z,21.31
2023-05-19T16:31:59.205Z,21.13
2023-05-19T16:34:28.643Z,21.41
2023-05-19T16:36:57.522Z,21.66
2023-05-19T16:39:25.339Z,21.70
2023-05-19T16:41:53.302Z,21.36
2023-05-19T16:44:21.603Z,21.16
2023-05-19T16:46:50.648Z,21.10
2023-05-19T16:49:18.219Z,20.95
2023-05-19T16:51:47.571Z,20.75
2023-05-19T16:54:16.649Z,20.59
2023-05-19T16:56:44.898Z,20.62
2023-05-19T16:59:12.909Z,20.80
2023-05-19T17:01:40.805Z,21.12
2023-05-19T17:04:10.000Z,20.84
2023-05-19T17:06:38.121Z,20.90
2023-05-19T17:09:06.033Z,20.64
2023-05-19T17:11:33.874Z,20.74
2023-05-19T17:14:01.984Z,21.58
2023-05-19T17:16:30.056Z,21.78
2023-05-19T17:18:58.193Z,21.97
2023-05-19T17:21:27.864Z,22.53
2023-05-19T17:23:55.933Z,21.83
2023-05-19T17:26:23.989Z,21.27
2023-05-19T17:28:52.018Z,20.77
2023-05-19T17:31:22.846Z,20.86
2023-05-19T17:33:50.807Z,20.53
2023-05-19T17:36:18.656Z,20.16
2023-05-19T17:38:47.914Z,20.19
2023-05-19T17:41:16.020Z,20.10
2023-05-19T17:43:43.646Z,19.89
2023-05-19T17:46:11.804Z,19.71
2023-05-19T17:48:39.895Z,19.60
2023-05-19T17:51:08.081Z,19.47
2023-05-19T17:53:36.594Z,19.32
2023-05-19T17:56:08.959Z,19.21
2023-05-19T17:58:36.973Z,19.19
2023-05-19T18:01:04.801Z,19.34
2023-05-19T18:03:33.556Z,19.53
2023-05-19T18:06:02.484Z,19.47
2023-05-19T18:08:31.867Z,20.24
2023-05-19T18:11:00.496Z,20.32
2023-05-19T18:13:31.055Z,20.33
2023-05-19T18:15:59.672Z,20.58
2023-05-19T18:18:27.525Z,20.34
2023-05-19T18:20:55.326Z,20.34
2023-05-19T18:23:23.113Z,20.34
2023-05-19T18:25:53.467Z,20.14
2023-05-19T18:28:21.776Z,19.59
2023-05-19T18:30:59.102Z,19.63
2023-05-19T18:33:28.465Z,19.36
2023-05-19T18:35:57.410Z,19.45
2023-05-19T18:38:25.368Z,19.43
2023-05-19T18:40:58.282Z,19.23
2023-05-19T18:43:26.030Z,19.24
2023-05-19T18:45:58.810Z,18.99
2023-05-19T18:48:27.137Z,18.75
2023-05-19T18:50:55.071Z,18.84
2023-05-19T18:53:23.425Z,18.64
2023-05-19T18:55:51.429Z,18.52
2023-05-19T18:58:19.721Z,18.54
2023-05-19T19:00:47.461Z,18.29
2023-05-19T19:03:17.144Z,18.18
2023-05-19T19:05:45.294Z,18.13
2023-05-19T19:08:13.239Z,18.07
2023-05-19T19:10:41.201Z,18.07
2023-05-19T19:13:09.042Z,17.87
2023-05-19T19:15:37.618Z,17.80
2023-05-19T19:18:06.184Z,17.78
2023-05-19T19:20:37.119Z,17.77
2023-05-19T19:23:06.443Z,17.82
2023-05-19T19:25:34.437Z,17.69
2023-05-19T19:28:02.431Z,17.67
2023-05-19T19:30:30.512Z,17.68
2023-05-19T19:32:59.530Z,17.69
2023-05-19T19:35:27.357Z,17.53
2023-05-19T19:37:57.001Z,17.54
2023-05-19T19:40:25.153Z,17.39
2023-05-19T19:42:53.053Z,17.41
2023-05-19T19:45:21.916Z,17.40
2023-05-19T19:47:49.595Z,17.35
2023-05-19T19:50:17.573Z,17.32
2023-05-19T19:52:45.632Z,17.30
2023-05-19T19:55:14.929Z,17.29
2023-05-19T19:57:45.001Z,17.31
2023-05-19T20:00:13.353Z,17.32
2023-05-19T20:02:59.574Z,17.27
2023-05-19T20:05:29.551Z,17.13
2023-05-19T20:07:59.502Z,17.14
2023-05-19T20:10:28.708Z,17.09
2023-05-19T20:13:00.056Z,16.98
2023-05-19T20:15:28.444Z,16.97
2023-05-19T20:17:56.543Z,16.96
2023-05-19T20:20:24.689Z,16.92
2023-05-19T20:22:52.187Z,16.87
2023-05-19T20:25:19.966Z,16.84
2023-05-19T20:27:48.947Z,16.83
2023-05-19T20:30:19.602Z,16.80
2023-05-19T20:32:47.427Z,16.87
2023-05-19T20:35:15.243Z,16.83
2023-05-19T20:37:42.825Z,16.71
2023-05-19T20:40:11.414Z,16.68
2023-05-19T20:42:39.763Z,16.67
2023-05-19T20:45:09.794Z,16.61
2023-05-19T20:47:37.622Z,16.52
2023-05-19T20:50:05.755Z,16.49
2023-05-19T20:52:33.623Z,16.45
2023-05-19T20:55:01.219Z,16.41
2023-05-19T20:57:29.017Z,16.35
2023-05-19T20:59:56.872Z,16.31
2023-05-19T21:02:26.250Z,16.29
2023-05-19T21:04:54.070Z,16.23
2023-05-19T21:07:22.307Z,16.11
2023-05-19T21:09:51.425Z,16.12
2023-05-19T21:12:23.965Z,16.03
2023-05-19T21:14:51.969Z,16.08
2023-05-19T21:17:21.029Z,16.09
2023-05-19T21:19:52.962Z,16.05
2023-05-19T21:22:21.364Z,16.01
2023-05-19T21:24:49.721Z,16.00
2023-05-19T21:27:17.866Z,15.86
2023-05-19T21:29:46.206Z,15.81
2023-05-19T21:32:14.360Z,15.79
2023-05-19T21:34:43.607Z,15.70
2023-05-19T21:37:13.752Z,15.68
2023-05-19T21:39:42.427Z,15.62
2023-05-19T21:42:10.764Z,15.62
2023-05-19T21:44:39.386Z,15.62
2023-05-19T21:47:07.232Z,15.62
2023-05-19T21:49:35.426Z,15.60
2023-05-19T21:52:03.454Z,15.59
2023-05-19T21:54:33.193Z,15.44
2023-05-19T21:57:02.484Z,15.36
2023-05-19T21:59:30.787Z,15.35
2023-05-19T22:01:58.922Z,15.22
2023-05-19T22:04:27.615Z,15.15
2023-05-19T22:06:55.588Z,15.13
2023-05-19T22:09:23.782Z,15.05
2023-05-19T22:11:52.970Z,15.01
2023-05-19T22:14:21.501Z,14.89
2023-05-19T22:16:50.217Z,14.83
2023-05-19T22:19:18.814Z,14.80
2023-05-19T22:21:46.546Z,14.77
2023-05-19T22:24:14.319Z,14.69
2023-05-19T22:26:43.423Z,14.59
2023-05-19T22:29:15.307Z,14.53
2023-05-19T22:31:43.253Z,14.48
2023-05-19T22:34:12.785Z,14.47
2023-05-19T22:36:41.689Z,14.42
2023-05-19T22:39:09.797Z,14.25
2023-05-19T22:41:38.112Z,14.25
2023-05-19T22:44:06.767Z,14.20
2023-05-19T22:46:36.106Z,14.15
2023-05-19T22:49:04.177Z,14.12
2023-05-19T22:51:33.504Z,14.07
2023-05-19T22:54:01.705Z,14.11
2023-05-19T22:56:30.120Z,14.06
2023-05-19T22:58:58.235Z,14.06
2023-05-19T23:01:26.492Z,14.06
2023-05-19T23:03:55.648Z,14.02
2023-05-19T23:06:23.987Z,14.04
2023-05-19T23:08:59.147Z,13.94
2023-05-19T23:11:27.395Z,13.94
2023-05-19T23:13:55.397Z,13.90
2023-05-19T23:16:23.829Z,14.01
2023-05-19T23:18:51.914Z,14.02
2023-05-19T23:21:21.571Z,14.01
2023-05-19T23:23:49.518Z,13.96
2023-05-19T23:26:17.429Z,13.94
2023-05-19T23:28:45.653Z,13.93
2023-05-19T23:31:13.858Z,13.97
2023-05-19T23:33:41.932Z,13.94
2023-05-19T23:36:11.032Z,13.88
2023-05-19T23:38:40.673Z,13.87
2023-05-19T23:41:08.718Z,13.86
2023-05-19T23:43:37.854Z,13.83
2023-05-19T23:46:06.594Z,13.79
2023-05-19T23:48:35.694Z,13.72
2023-05-19T23:51:03.673Z,13.61
2023-05-19T23:53:31.808Z,13.55
2023-05-19T23:56:01.895Z,13.50
2023-05-19T23:58:29.981Z,13.48
